createdAt,value
2022-12-18T00:01:34.028Z,5.28
2022-12-18T00:04:07.238Z,5.22
2022-12-18T00:06:37.024Z,4.85
2022-12-18T00:09:04.275Z,4.88
2022-12-18T00:11:31.844Z,8.05
2022-12-18T00:14:01.875Z,11.27
2022-12-18T00:16:30.900Z,8.20
2022-12-18T00:19:02.068Z,7.25
2022-12-18T00:21:33.135Z,6.63
2022-12-18T00:24:00.930Z,7.22
2022-12-18T00:26:33.795Z,6.75
2022-12-18T00:29:04.409Z,5.80
2022-12-18T00:31:32.632Z,7.75
2022-12-18T00:33:59.550Z,7.15
2022-12-18T00:36:30.997Z,5.97
2022-12-18T00:39:00.473Z,6.22
2022-12-18T00:41:47.221Z,5.93
2022-12-18T00:44:16.563Z,6.07
2022-12-18T00:46:44.814Z,6.28
2022-12-18T00:49:15.038Z,6.22
2022-12-18T00:51:41.846Z,6.25
2022-12-18T00:54:08.806Z,6.95
2022-12-18T00:56:48.186Z,7.15
2022-12-18T00:59:16.363Z,7.13
2022-12-18T01:01:43.554Z,6.47
2022-12-18T01:04:12.546Z,6.18
2022-12-18T01:06:39.230Z,7.18
2022-12-18T01:09:09.351Z,7.15
2022-12-18T01:11:36.046Z,6.00
2022-12-18T01:14:02.778Z,5.72
2022-12-18T01:16:29.571Z,7.47
2022-12-18T01:18:56.430Z,6.53
2022-12-18T01:21:24.562Z,6.93
2022-12-18T01:23:56.543Z,6.22
2022-12-18T01:26:25.079Z,6.60
2022-12-18T01:28:52.905Z,6.25
2022-12-18T01:31:24.737Z,6.60
2022-12-18T01:33:53.118Z,6.22
2022-12-18T01:36:22.791Z,6.13
2022-12-18T01:38:50.576Z,7.10
2022-12-18T01:41:21.123Z,7.18
2022-12-18T01:43:58.796Z,7.50
2022-12-18T01:46:27.635Z,7.43
2022-12-18T01:49:02.724Z,6.97
2022-12-18T01:51:31.255Z,7.32
2022-12-18T01:53:58.923Z,8.93
2022-12-18T01:56:25.548Z,8.40
2022-12-18T01:59:07.055Z,7.95
2022-12-18T02:01:34.570Z,8.43
2022-12-18T02:04:25.291Z,8.15
2022-12-18T02:07:28.088Z,7.68
2022-12-18T02:10:21.536Z,8.82
2022-12-18T02:13:19.066Z,8.93
2022-12-18T02:16:01.100Z,8.68
2022-12-18T02:18:34.577Z,8.70
2022-12-18T02:21:51.811Z,9.32
2022-12-18T02:25:00.736Z,8.73
2022-12-18T02:27:30.431Z,8.13
2022-12-18T02:30:00.639Z,9.98
2022-12-18T02:32:33.567Z,8.68
2022-12-18T02:35:02.614Z,9.27
2022-12-18T02:37:30.620Z,8.50
2022-12-18T02:39:59.195Z,8.38
2022-12-18T02:42:27.072Z,8.40
2022-12-18T02:44:56.378Z,8.80
2022-12-18T02:47:31.002Z,8.55
2022-12-18T02:50:15.564Z,8.65
2022-12-18T02:53:25.388Z,8.63
2022-12-18T02:56:27.394Z,6.97
2022-12-18T02:59:12.424Z,7.53
2022-12-18T03:02:27.344Z,7.45
2022-12-18T03:05:01.660Z,6.35
2022-12-18T03:07:54.003Z,7.63
2022-12-18T03:10:29.678Z,7.05
2022-12-18T03:13:05.914Z,7.10
2022-12-18T03:15:45.291Z,7.05
2022-12-18T03:18:17.257Z,7.20
2022-12-18T03:20:47.114Z,7.18
2022-12-18T03:23:19.158Z,7.28
2022-12-18T03:25:47.791Z,7.82
2022-12-18T03:28:18.749Z,7.65
2022-12-18T03:30:48.795Z,6.78
2022-12-18T03:33:27.417Z,7.00
2022-12-18T03:35:54.112Z,6.93
2022-12-18T03:38:20.946Z,6.65
2022-12-18T03:41:16.175Z,6.78
2022-12-18T03:43:54.914Z,7.05
2022-12-18T03:46:42.683Z,6.15
2022-12-18T03:49:24.930Z,7.07
2022-12-18T03:52:04.295Z,6.25
2022-12-18T03:54:31.811Z,6.18
2022-12-18T03:57:05.823Z,6.88
2022-12-18T03:59:36.035Z,6.78
2022-12-18T04:02:04.010Z,7.10
2022-12-18T04:04:31.983Z,6.78
2022-12-18T04:06:59.736Z,6.03
2022-12-18T04:09:27.074Z,6.70
2022-12-18T04:11:53.860Z,6.80
2022-12-18T04:14:20.589Z,6.68
2022-12-18T04:16:47.215Z,6.35
2022-12-18T04:19:13.947Z,6.32
2022-12-18T04:21:40.516Z,6.20
2022-12-18T04:24:07.480Z,7.13
2022-12-18T04:26:34.084Z,6.45
2022-12-18T04:29:00.805Z,6.95
2022-12-18T04:31:28.611Z,6.88
2022-12-18T04:33:55.257Z,6.85
2022-12-18T04:36:22.104Z,7.30
2022-12-18T04:38:48.712Z,6.63
2022-12-18T04:41:15.299Z,6.60
2022-12-18T04:43:42.190Z,7.22
2022-12-18T04:46:09.949Z,7.00
2022-12-18T04:48:37.905Z,7.00
2022-12-18T04:51:06.216Z,7.05
2022-12-18T04:53:33.232Z,7.22
2022-12-18T04:56:12.808Z,6.63
2022-12-18T04:58:42.843Z,6.57
2022-12-18T05:01:13.669Z,6.90
2022-12-18T05:03:41.189Z,7.65
2022-12-18T05:06:08.189Z,7.88
2022-12-18T05:08:35.584Z,7.25
2022-12-18T05:11:09.396Z,8.43
2022-12-18T05:13:39.116Z,7.50
2022-12-18T05:16:07.428Z,8.65
2022-12-18T05:18:34.736Z,7.60
2022-12-18T05:21:01.817Z,7.75
2022-12-18T05:23:28.914Z,7.32
2022-12-18T05:26:02.681Z,7.55
2022-12-18T05:28:36.883Z,7.70
2022-12-18T05:31:05.557Z,7.20
2022-12-18T05:33:34.951Z,8.02
2022-12-18T05:36:06.351Z,8.60
2022-12-18T05:38:36.504Z,7.78
2022-12-18T05:41:04.391Z,8.43
2022-12-18T05:43:31.344Z,7.40
2022-12-18T05:45:58.404Z,7.82
2022-12-18T05:48:25.682Z,8.07
2022-12-18T05:50:52.664Z,7.93
2022-12-18T05:53:21.136Z,8.10
2022-12-18T05:55:48.538Z,8.50
2022-12-18T05:58:16.517Z,8.13
2022-12-18T06:00:46.852Z,8.45
2022-12-18T06:03:14.406Z,7.78
2022-12-18T06:05:45.291Z,7.47
2022-12-18T06:08:16.022Z,7.78
2022-12-18T06:10:42.979Z,7.97
2022-12-18T06:13:09.917Z,8.32
2022-12-18T06:15:39.816Z,7.95
2022-12-18T06:18:06.473Z,7.88
2022-12-18T06:20:33.991Z,8.15
2022-12-18T06:23:01.211Z,8.68
2022-12-18T06:25:28.109Z,7.82
2022-12-18T06:27:54.884Z,7.78
2022-12-18T06:30:21.684Z,8.63
2022-12-18T06:32:53.182Z,8.57
2022-12-18T06:35:23.417Z,8.77
2022-12-18T06:37:55.957Z,8.23
2022-12-18T06:40:22.572Z,8.25
2022-12-18T06:42:51.249Z,8.10
2022-12-18T06:45:19.660Z,8.25
2022-12-18T06:47:46.256Z,8.93
2022-12-18T06:50:13.769Z,9.55
2022-12-18T06:52:44.836Z,9.02
2022-12-18T06:55:12.202Z,11.20
2022-12-18T06:57:39.189Z,12.82
2022-12-18T07:00:08.696Z,10.00
2022-12-18T07:02:35.585Z,9.15
2022-12-18T07:05:07.500Z,9.48
2022-12-18T07:07:37.172Z,9.05
2022-12-18T07:10:04.593Z,8.90
2022-12-18T07:12:31.161Z,8.93
2022-12-18T07:14:57.755Z,8.52
2022-12-18T07:17:25.455Z,8.70
2022-12-18T07:19:52.149Z,9.55
2022-12-18T07:22:18.857Z,9.18
2022-12-18T07:24:46.021Z,9.23
2022-12-18T07:27:18.259Z,8.20
2022-12-18T07:29:44.876Z,14.18
2022-12-18T07:32:11.602Z,14.00
2022-12-18T07:34:42.679Z,12.80
2022-12-18T07:37:09.403Z,11.77
2022-12-18T07:39:35.969Z,11.80
2022-12-18T07:42:21.015Z,9.73
2022-12-18T07:44:48.068Z,10.07
2022-12-18T07:47:14.684Z,10.82
2022-12-18T07:49:41.295Z,9.45
2022-12-18T07:52:08.102Z,9.93
2022-12-18T07:54:34.723Z,10.75
2022-12-18T07:57:01.350Z,10.63
2022-12-18T07:59:27.973Z,10.48
2022-12-18T08:01:54.778Z,8.98
2022-12-18T08:04:21.536Z,9.07
2022-12-18T08:06:48.532Z,9.80
2022-12-18T08:09:15.403Z,9.23
2022-12-18T08:11:42.077Z,9.50
2022-12-18T08:14:08.740Z,9.88
2022-12-18T08:16:40.450Z,12.55
2022-12-18T08:19:07.057Z,12.93
2022-12-18T08:21:33.728Z,13.63
2022-12-18T08:24:02.405Z,11.60
2022-12-18T08:26:31.818Z,12.50
2022-12-18T08:29:01.205Z,11.75
2022-12-18T08:31:30.035Z,11.45
2022-12-18T08:33:58.229Z,13.05
2022-12-18T08:36:25.565Z,13.30
2022-12-18T08:38:55.292Z,12.52
2022-12-18T08:41:22.341Z,10.15
2022-12-18T08:44:07.900Z,12.73
2022-12-18T08:46:40.326Z,12.30
2022-12-18T08:49:08.425Z,11.07
2022-12-18T08:51:39.257Z,11.10
2022-12-18T08:54:15.826Z,11.20
2022-12-18T08:56:45.246Z,14.32
2022-12-18T08:59:19.351Z,11.75
2022-12-18T09:01:49.171Z,10.35
2022-12-18T09:04:16.353Z,11.93
2022-12-18T09:06:46.818Z,11.18
2022-12-18T09:09:16.936Z,12.60
2022-12-18T09:11:44.665Z,11.52
2022-12-18T09:14:13.205Z,12.02
2022-12-18T09:16:49.821Z,13.75
2022-12-18T09:19:17.768Z,16.55
2022-12-18T09:21:54.405Z,16.33
2022-12-18T09:24:23.680Z,16.67
2022-12-18T09:26:57.836Z,14.27
2022-12-18T09:29:24.759Z,16.48
2022-12-18T09:31:51.436Z,15.60
2022-12-18T09:34:18.109Z,14.05
2022-12-18T09:36:44.801Z,14.20
2022-12-18T09:39:11.414Z,13.20
2022-12-18T09:41:57.801Z,14.93
2022-12-18T09:44:45.468Z,13.00
2022-12-18T09:47:19.866Z,13.18
2022-12-18T09:49:50.539Z,11.88
2022-12-18T09:52:41.142Z,11.40
2022-12-18T09:55:24.286Z,13.23
2022-12-18T09:57:58.077Z,13.25
2022-12-18T10:00:26.101Z,11.85
2022-12-18T10:03:01.361Z,13.43
2022-12-18T10:05:40.695Z,16.67
2022-12-18T10:08:40.151Z,16.52
2022-12-18T10:11:42.056Z,16.33
2022-12-18T10:14:46.336Z,16.38
2022-12-18T10:17:32.944Z,15.93
2022-12-18T10:20:24.409Z,14.23
2022-12-18T10:23:25.885Z,12.10
2022-12-18T10:26:10.759Z,11.77
2022-12-18T10:28:40.422Z,12.55
2022-12-18T10:31:28.587Z,12.98
2022-12-18T10:33:56.175Z,13.23
2022-12-18T10:36:25.515Z,14.05
2022-12-18T10:38:52.641Z,14.45
2022-12-18T10:41:19.929Z,13.73
2022-12-18T10:43:49.061Z,13.77
2022-12-18T10:46:19.834Z,15.20
2022-12-18T10:48:49.821Z,15.63
2022-12-18T10:51:31.692Z,19.15
2022-12-18T10:54:06.391Z,16.95
2022-12-18T10:56:36.825Z,19.48
2022-12-18T10:59:11.421Z,111.60
2022-12-18T11:01:59.387Z,64.80
2022-12-18T11:04:32.363Z,73.80
2022-12-18T11:07:06.745Z,84.18
2022-12-18T11:09:39.287Z,146.65
2022-12-18T11:12:19.995Z,97.55
2022-12-18T11:14:50.994Z,98.47
2022-12-18T11:17:26.636Z,99.15
2022-12-18T11:20:32.925Z,107.68
2022-12-18T11:23:06.426Z,70.45
2022-12-18T11:25:35.973Z,85.05
2022-12-18T11:28:28.697Z,89.65
2022-12-18T11:31:28.704Z,37.53
2022-12-18T11:34:29.077Z,21.33
2022-12-18T11:36:58.722Z,37.05
2022-12-18T11:39:43.775Z,22.48
2022-12-18T11:42:39.554Z,20.60
2022-12-18T11:45:13.533Z,22.50
2022-12-18T11:48:00.407Z,17.58
2022-12-18T11:50:49.389Z,17.25
2022-12-18T11:53:16.386Z,19.80
2022-12-18T11:55:55.550Z,18.48
2022-12-18T11:58:38.044Z,18.73
2022-12-18T12:01:44.030Z,19.38
2022-12-18T12:04:57.201Z,18.38
2022-12-18T12:07:35.629Z,19.67
2022-12-18T12:10:51.152Z,18.33
2022-12-18T12:13:39.245Z,20.83
2022-12-18T12:16:23.659Z,19.55
2022-12-18T12:19:19.884Z,19.92
2022-12-18T12:22:14.873Z,19.35
2022-12-18T12:25:21.080Z,20.25
2022-12-18T12:28:08.945Z,18.55
2022-12-18T12:31:26.007Z,19.05
2022-12-18T12:34:21.331Z,19.60
2022-12-18T12:37:09.101Z,20.33
2022-12-18T12:39:46.980Z,20.52
2022-12-18T12:42:54.123Z,19.95
2022-12-18T12:45:45.007Z,19.83
2022-12-18T12:48:46.355Z,19.05
2022-12-18T12:51:30.235Z,19.73
2022-12-18T12:53:59.392Z,20.45
2022-12-18T12:56:38.969Z,20.42
2022-12-18T12:59:26.057Z,19.73
2022-12-18T13:02:42.443Z,20.40
2022-12-18T13:05:49.189Z,20.65
2022-12-18T13:08:31.214Z,19.33
2022-12-18T13:11:19.957Z,22.50
2022-12-18T13:13:53.237Z,21.50
2022-12-18T13:16:23.627Z,20.83
2022-12-18T13:18:57.744Z,20.05
2022-12-18T13:21:34.690Z,20.67
2022-12-18T13:24:30.450Z,22.85
2022-12-18T13:26:57.326Z,20.70
2022-12-18T13:29:46.273Z,20.48
2022-12-18T13:32:27.109Z,24.67
2022-12-18T13:35:19.114Z,22.10
2022-12-18T13:37:53.899Z,22.45
2022-12-18T13:40:39.377Z,21.97
2022-12-18T13:43:28.713Z,21.05
2022-12-18T13:46:25.021Z,22.55
2022-12-18T13:49:36.790Z,22.27
2022-12-18T13:52:04.389Z,21.98
2022-12-18T13:54:50.217Z,23.25
2022-12-18T13:57:36.159Z,20.25
2022-12-18T14:00:29.619Z,18.08
2022-12-18T14:02:58.311Z,21.08
2022-12-18T14:05:32.325Z,23.23
2022-12-18T14:08:07.282Z,25.10
2022-12-18T14:10:48.252Z,22.98
2022-12-18T14:13:38.856Z,19.88
2022-12-18T14:16:08.309Z,19.98
2022-12-18T14:19:02.650Z,20.80
2022-12-18T14:21:49.084Z,23.17
2022-12-18T14:24:23.236Z,23.42
2022-12-18T14:26:51.408Z,22.85
2022-12-18T14:29:31.692Z,22.48
2022-12-18T14:32:19.202Z,20.67
2022-12-18T14:34:56.159Z,22.50
2022-12-18T14:37:26.582Z,23.10
2022-12-18T14:40:11.114Z,21.63
2022-12-18T14:42:38.351Z,22.98
2022-12-18T14:45:41.785Z,21.73
2022-12-18T14:48:23.383Z,22.58
2022-12-18T14:51:03.518Z,19.92
2022-12-18T14:53:37.383Z,20.80
2022-12-18T14:56:15.671Z,23.35
2022-12-18T14:58:51.764Z,26.75
2022-12-18T15:01:36.161Z,22.08
2022-12-18T15:04:04.817Z,22.70
2022-12-18T15:06:40.695Z,22.92
2022-12-18T15:09:25.954Z,24.58
2022-12-18T15:11:59.112Z,22.27
2022-12-18T15:14:42.535Z,20.60
2022-12-18T15:17:22.602Z,21.27
2022-12-18T15:20:00.081Z,21.55
2022-12-18T15:22:37.658Z,20.33
2022-12-18T15:25:32.589Z,21.65
2022-12-18T15:27:59.288Z,20.52
2022-12-18T15:30:26.962Z,20.95
2022-12-18T15:33:17.475Z,19.50
2022-12-18T15:35:47.215Z,20.80
2022-12-18T15:38:14.023Z,21.35
2022-12-18T15:40:40.679Z,21.95
2022-12-18T15:43:31.641Z,20.08
2022-12-18T15:45:58.319Z,19.08
2022-12-18T15:48:24.938Z,21.17
2022-12-18T15:50:56.327Z,22.30
2022-12-18T15:53:24.083Z,20.98
2022-12-18T15:56:09.155Z,22.45
2022-12-18T15:58:35.811Z,22.88
2022-12-18T16:01:02.624Z,56.03
2022-12-18T16:03:29.483Z,39.05
2022-12-18T16:05:56.407Z,70.72
2022-12-18T16:08:24.315Z,54.65
2022-12-18T16:10:50.980Z,86.28
2022-12-18T16:13:20.640Z,133.07
2022-12-18T16:15:47.495Z,106.93
2022-12-18T16:18:14.117Z,75.38
2022-12-18T16:20:41.778Z,98.10
2022-12-18T16:23:08.599Z,51.92
2022-12-18T16:25:35.255Z,32.28
2022-12-18T16:28:11.820Z,24.90
2022-12-18T16:30:38.864Z,27.00
2022-12-18T16:33:05.954Z,38.47
2022-12-18T16:35:34.708Z,43.13
2022-12-18T16:38:01.283Z,30.35
2022-12-18T16:40:27.919Z,40.22
2022-12-18T16:42:58.955Z,46.22
2022-12-18T16:45:33.826Z,36.72
2022-12-18T16:48:00.416Z,30.15
2022-12-18T16:50:27.273Z,39.72
2022-12-18T16:53:02.914Z,36.95
2022-12-18T16:55:29.622Z,36.08
2022-12-18T16:57:56.210Z,37.67
2022-12-18T17:00:22.800Z,24.65
2022-12-18T17:02:49.748Z,23.60
2022-12-18T17:05:17.017Z,22.60
2022-12-18T17:07:43.599Z,22.15
2022-12-18T17:10:10.315Z,32.53
2022-12-18T17:12:37.250Z,26.67
2022-12-18T17:15:04.359Z,31.80
2022-12-18T17:17:31.031Z,29.00
2022-12-18T17:19:57.813Z,31.98
2022-12-18T17:22:24.439Z,29.13
2022-12-18T17:24:51.091Z,27.05
2022-12-18T17:27:17.802Z,28.42
2022-12-18T17:29:48.596Z,27.33
2022-12-18T17:32:16.904Z,26.35
2022-12-18T17:34:43.582Z,25.98
2022-12-18T17:37:10.185Z,26.25
2022-12-18T17:39:38.892Z,26.30
2022-12-18T17:42:05.752Z,23.83
2022-12-18T17:44:34.206Z,22.77
2022-12-18T17:47:01.223Z,25.88
2022-12-18T17:49:27.882Z,25.10
2022-12-18T17:51:54.539Z,28.13
2022-12-18T17:54:21.201Z,22.15
2022-12-18T17:56:47.771Z,23.70
2022-12-18T17:59:14.750Z,25.10
2022-12-18T18:01:45.010Z,27.67
2022-12-18T18:04:13.069Z,23.58
2022-12-18T18:06:39.820Z,26.40
2022-12-18T18:09:08.155Z,25.02
2022-12-18T18:12:03.713Z,26.17
2022-12-18T18:14:31.022Z,21.23
2022-12-18T18:16:58.228Z,22.63
2022-12-18T18:19:31.223Z,20.65
2022-12-18T18:21:57.805Z,20.08
2022-12-18T18:24:25.655Z,21.08
2022-12-18T18:26:56.348Z,25.63
2022-12-18T18:29:26.710Z,21.48
2022-12-18T18:31:53.934Z,21.35
2022-12-18T18:34:23.975Z,22.73
2022-12-18T18:36:51.176Z,27.77
2022-12-18T18:39:18.255Z,24.33
2022-12-18T18:41:47.841Z,26.77
2022-12-18T18:44:16.811Z,20.70
2022-12-18T18:46:43.927Z,20.10
2022-12-18T18:49:11.353Z,20.35
2022-12-18T18:51:37.962Z,20.75
2022-12-18T18:54:04.968Z,20.92
2022-12-18T18:59:29.193Z,22.55
2022-12-18T19:01:59.820Z,20.65
2022-12-18T19:04:31.252Z,20.17
2022-12-18T19:06:57.845Z,21.50
2022-12-18T19:09:24.824Z,22.45
2022-12-18T19:12:10.556Z,20.48
2022-12-18T19:14:37.241Z,21.17
2022-12-18T19:17:04.221Z,19.70
2022-12-18T19:19:31.134Z,18.88
2022-12-18T19:21:57.736Z,19.67
2022-12-18T19:24:24.385Z,18.58
2022-12-18T19:26:52.048Z,21.20
2022-12-18T19:29:19.635Z,18.92
2022-12-18T19:31:46.326Z,20.90
2022-12-18T19:34:13.118Z,21.38
2022-12-18T19:36:41.150Z,22.45
2022-12-18T19:39:12.441Z,20.25
2022-12-18T19:41:39.931Z,20.00
2022-12-18T19:44:08.122Z,19.02
2022-12-18T19:46:36.125Z,19.10
2022-12-18T19:49:06.309Z,20.25
2022-12-18T19:51:32.992Z,21.70
2022-12-18T19:54:01.953Z,21.48
2022-12-18T19:56:32.542Z,20.35
2022-12-18T19:58:59.468Z,23.17
2022-12-18T20:01:28.217Z,26.13
2022-12-18T20:03:56.037Z,23.52
2022-12-18T20:06:45.977Z,22.05
2022-12-18T20:09:12.773Z,20.38
2022-12-18T20:11:41.326Z,22.92
2022-12-18T20:14:10.242Z,22.02
2022-12-18T20:16:37.159Z,21.50
2022-12-18T20:19:05.481Z,21.00
2022-12-18T20:21:32.438Z,23.40
2022-12-18T20:23:59.977Z,20.42
2022-12-18T20:26:27.021Z,21.85
2022-12-18T20:28:54.704Z,21.73
2022-12-18T20:31:22.467Z,20.38
2022-12-18T20:33:49.980Z,20.33
2022-12-18T20:36:25.797Z,19.00
2022-12-18T20:38:55.705Z,20.30
2022-12-18T20:41:25.581Z,21.25
2022-12-18T20:43:53.957Z,19.23
2022-12-18T20:46:20.895Z,26.70
2022-12-18T20:48:48.007Z,22.10
2022-12-18T20:51:19.454Z,21.10
2022-12-18T20:53:47.186Z,22.75
2022-12-18T20:56:21.247Z,24.27
2022-12-18T20:58:50.304Z,22.63
2022-12-18T21:01:20.843Z,26.45
2022-12-18T21:03:48.395Z,26.80
2022-12-18T21:06:18.621Z,25.20
2022-12-18T21:08:49.300Z,23.92
2022-12-18T21:11:44.442Z,22.92
2022-12-18T21:14:20.790Z,22.10
2022-12-18T21:16:49.926Z,23.48
2022-12-18T21:19:20.777Z,25.15
2022-12-18T21:21:47.412Z,23.30
2022-12-18T21:24:14.565Z,24.05
2022-12-18T21:26:45.795Z,23.63
2022-12-18T21:29:26.281Z,22.02
2022-12-18T21:31:55.141Z,24.08
2022-12-18T21:34:28.523Z,20.90
2022-12-18T21:36:57.889Z,19.95
2022-12-18T21:39:26.669Z,20.38
2022-12-18T21:42:15.630Z,20.95
2022-12-18T21:44:43.498Z,20.15
2022-12-18T21:47:22.771Z,20.95
2022-12-18T21:49:52.439Z,23.05
2022-12-18T21:52:20.423Z,21.05
2022-12-18T21:55:00.727Z,19.50
2022-12-18T21:57:40.709Z,20.27
2022-12-18T22:00:19.334Z,19.27
2022-12-18T22:02:48.166Z,20.40
2022-12-18T22:05:15.524Z,19.83
2022-12-18T22:07:42.087Z,19.52
2022-12-18T22:10:09.239Z,20.77
2022-12-18T22:12:43.533Z,20.40
2022-12-18T22:15:14.345Z,19.77
2022-12-18T22:17:55.512Z,21.83
2022-12-18T22:20:26.906Z,21.05
2022-12-18T22:22:53.601Z,20.40
2022-12-18T22:25:20.213Z,19.73
2022-12-18T22:28:06.935Z,19.73
2022-12-18T22:30:34.064Z,19.25
2022-12-18T22:33:01.279Z,19.30
2022-12-18T22:35:27.858Z,21.10
2022-12-18T22:37:54.531Z,21.55
2022-12-18T22:40:26.883Z,20.88
2022-12-18T22:42:54.481Z,20.35
2022-12-18T22:45:23.899Z,21.08
2022-12-18T22:47:51.368Z,19.63
2022-12-18T22:50:18.222Z,19.95
2022-12-18T22:52:44.878Z,21.45
2022-12-18T22:55:11.511Z,21.42
2022-12-18T22:57:40.193Z,21.08
2022-12-18T23:00:11.304Z,19.30
2022-12-18T23:02:38.110Z,20.02
2022-12-18T23:05:06.502Z,20.13
2022-12-18T23:07:33.094Z,20.08
2022-12-18T23:10:00.983Z,20.20
2022-12-18T23:12:29.653Z,19.08
2022-12-18T23:14:56.225Z,21.25
2022-12-18T23:17:22.953Z,20.08
2022-12-18T23:19:49.617Z,20.63
2022-12-18T23:22:17.603Z,27.42
2022-12-18T23:24:44.265Z,35.55
2022-12-18T23:27:11.711Z,35.58
2022-12-18T23:29:40.306Z,29.10
2022-12-18T23:32:07.434Z,24.63
2022-12-18T23:34:34.320Z,22.35
2022-12-18T23:37:01.004Z,20.58
2022-12-18T23:39:29.656Z,21.70
2022-12-18T23:42:00.767Z,19.88
2022-12-18T23:44:27.924Z,19.58
2022-12-18T23:46:54.947Z,19.17
2022-12-18T23:49:23.048Z,20.30
2022-12-18T23:51:54.999Z,19.27
2022-12-18T23:54:32.704Z,18.95
2022-12-18T23:57:01.312Z,19.27
2022-12-18T23:59:27.878Z,20.10
